Time;durP1;ratioP1;P1;durP2;ratioP2;P2;SDS_P1;SDS_P2;PMS_P1;PMS_P2;Temp;Humidity;BMP_temperature;BMP_pressure;BME280_temperature;BME280_humidity;BME280_pressure;Samples;Min_cycle;Max_cycle;Signal;HPM_P1;HPM_P2
2022/08/24 00:00:11;;;;;;;;;;;;;;;26.07;50.98;99511.31;2025311;29;19994;-48
2022/08/24 00:01:13;;;;;;;;;;;;;;;26.07;50.77;99510.47;2024814;29;20348;-45
2022/08/24 00:02:13;;;;;;;;;;;;;;;26.06;50.78;99512.34;2025647;29;19998;-46
2022/08/24 00:03:13;;;;;;;;;;;;;;;26.07;51.06;99511.31;2026374;29;20154;-47
2022/08/24 00:04:14;;;;;;;;;;;;;;;26.06;51.04;99512.34;2019629;29;19920;-49
2022/08/24 00:05:15;;;;;;;;;;;;;;;26.07;51.09;99510.47;2026760;29;20116;-47
2022/08/24 00:06:18;;;;;;;;;;;;;;;26.07;50.82;99504.94;2032054;29;19941;-45
2022/08/24 00:07:19;;;;;;;;;;;;;;;26.06;51.12;99512.34;2024711;29;20546;-46
2022/08/24 00:08:20;;;;;;;;;;;;;;;26.06;51.03;99504.06;2026209;29;19930;-48
2022/08/24 00:09:20;;;;;;;;;;;;;;;26.06;51.05;99508.75;2026567;29;19919;-48
2022/08/24 00:10:21;;;;;;;;;;;;;;;26.06;50.98;99509.59;2026081;29;19923;-47
2022/08/24 00:11:21;;;;;;;;;;;;;;;26.06;50.97;99509.59;2026233;29;19927;-48
2022/08/24 00:12:22;;;;;;;;;;;;;;;26.05;50.70;99512.56;2025607;29;19915;-46
2022/08/24 00:13:23;;;;;;;;;;;;;;;26.05;50.97;99513.41;2025623;29;19926;-49
2022/08/24 00:14:23;;;;;;;;;;;;;;;26.05;50.69;99513.41;2026793;29;20006;-50
2022/08/24 00:15:23;;;;;;;;;;;;;;;26.04;50.94;99506.22;2026084;29;20304;-49
2022/08/24 00:16:24;;;;;;;;;;;;;;;26.04;50.89;99505.34;2025812;29;19915;-47
2022/08/24 00:17:25;;;;;;;;;;;;;;;26.04;50.94;99506.22;2030164;29;20108;-47
2022/08/24 00:18:25;;;;;;;;;;;;;;;26.04;50.85;99502.56;2027974;29;19966;-46
2022/08/24 00:19:26;;;;;;;;;;;;;;;26.04;50.63;99508.09;2018902;29;20022;-46
2022/08/24 00:20:28;;;;;;;;;;;;;;;26.02;50.46;99508.31;2025812;29;19919;-46
2022/08/24 00:21:28;;;;;;;;;;;;;;;26.03;50.40;99509.16;2022596;29;19942;-46
2022/08/24 00:22:28;;;;;;;;;;;;;;;26.02;50.48;99502.81;2025332;29;19919;-49
2022/08/24 00:23:29;;;;;;;;;;;;;;;26.01;50.40;99506.59;2022749;29;19922;-48
2022/08/24 00:24:29;;;;;;;;;;;;;;;26.02;50.39;99502.81;2020843;29;19926;-47
2022/08/24 00:25:30;;;;;;;;;;;;;;;26.02;50.38;99513.00;2028476;29;20247;-49
2022/08/24 00:26:30;;;;;;;;;;;;;;;26.01;50.45;99506.59;2027015;29;19947;-46
2022/08/24 00:27:30;;;;;;;;;;;;;;;26.02;50.42;99508.31;2027957;29;19915;-46
2022/08/24 00:28:31;;;;;;;;;;;;;;;26.02;50.77;99508.31;2026828;29;19919;-48
2022/08/24 00:29:33;;;;;;;;;;;;;;;26.01;50.69;99506.59;2025130;29;20457;-46
2022/08/24 00:30:33;;;;;;;;;;;;;;;26.02;50.54;99507.47;2026432;29;20033;-47
2022/08/24 00:31:34;;;;;;;;;;;;;;;26.02;50.70;99507.47;2026487;29;20829;-48
2022/08/24 00:32:36;;;;;;;;;;;;;;;26.02;50.54;99511.09;2018965;29;19955;-48
2022/08/24 00:33:37;;;;;;;;;;;;;;;26.02;50.53;99508.31;2021930;29;19966;-47
2022/08/24 00:34:38;;;;;;;;;;;;;;;26.03;50.77;99509.16;2029375;29;19946;-46
2022/08/24 00:35:38;;;;;;;;;;;;;;;26.02;50.43;99508.31;2020259;29;19919;-48
2022/08/24 00:36:39;;;;;;;;;;;;;;;26.03;50.48;99507.25;2010580;29;19920;-50
2022/08/24 00:37:40;;;;;;;;;;;;;;;26.01;50.32;99506.59;2009359;29;20119;-48
2022/08/24 00:38:41;;;;;;;;;;;;;;;26.02;50.36;99502.81;2018279;29;20271;-48
2022/08/24 00:39:41;;;;;;;;;;;;;;;26.02;50.48;99502.81;2026866;29;19922;-50
2022/08/24 00:40:45;;;;;;;;;;;;;;;26.02;50.31;99497.28;2028631;29;19962;-48
2022/08/24 00:41:47;;;;;;;;;;;;;;;26.03;50.49;99498.97;2026812;29;19947;-48
2022/08/24 00:42:49;;;;;;;;;;;;;;;26.03;50.37;99507.25;2028099;29;19965;-46
2022/08/24 00:43:53;;;;;;;;;;;;;;;26.03;50.34;99501.72;2027464;29;19915;-48
2022/08/24 00:44:53;;;;;;;;;;;;;;;26.03;50.70;99503.63;2019257;29;19927;-49
2022/08/24 00:46:15;;;;;;;;;;;;;;;26.03;50.36;99503.63;2019610;29;20359;-49
2022/08/24 00:47:20;;;;;;;;;;;;;;;26.03;50.54;99504.50;2026150;29;19916;-48
2022/08/24 00:48:24;;;;;;;;;;;;;;;26.03;50.55;99507.25;2028257;29;19945;-49
2022/08/24 00:49:33;;;;;;;;;;;;;;;26.03;50.34;99501.72;2027692;29;19955;-46
2022/08/24 00:50:43;;;;;;;;;;;;;;;26.03;50.58;99498.13;2027289;29;19942;-48
2022/08/24 00:51:48;;;;;;;;;;;;;;;26.03;50.31;99503.63;2027000;29;19919;-49
2022/08/24 00:52:50;;;;;;;;;;;;;;;26.02;50.26;99497.28;2026648;29;20170;-50
2022/08/24 00:53:53;;;;;;;;;;;;;;;26.03;50.40;99498.97;2026007;29;19919;-48
2022/08/24 00:54:59;;;;;;;;;;;;;;;26.03;50.40;99498.13;2027250;29;19919;-46
2022/08/24 00:56:01;;;;;;;;;;;;;;;26.02;50.27;99496.44;2028030;29;20420;-46
2022/08/24 00:57:05;;;;;;;;;;;;;;;26.02;50.40;99501.97;2031405;29;20419;-46
2022/08/24 00:58:12;;;;;;;;;;;;;;;26.02;50.41;99497.28;2029032;29;20017;-47
2022/08/24 00:59:16;;;;;;;;;;;;;;;26.02;50.64;99499.19;2027880;29;20016;-46
2022/08/24 01:00:20;;;;;;;;;;;;;;;26.02;50.70;99501.97;2028115;29;19919;-45
2022/08/24 01:01:20;;;;;;;;;;;;;;;26.01;50.64;99501.06;2026279;29;19926;-49
2022/08/24 01:02:23;;;;;;;;;;;;;;;26.01;50.57;99508.53;2027086;29;19974;-51
2022/08/24 01:03:26;;;;;;;;;;;;;;;26.01;50.47;99505.75;2023307;29;19923;-51
2022/08/24 01:04:31;;;;;;;;;;;;;;;26.00;50.72;99498.53;2026779;29;19923;-51
2022/08/24 01:05:32;;;;;;;;;;;;;;;26.00;50.49;99501.31;2028234;29;20644;-47
2022/08/24 01:06:33;;;;;;;;;;;;;;;25.99;50.67;99503.22;2028244;29;20163;-49
2022/08/24 01:07:34;;;;;;;;;;;;;;;26.00;50.52;99498.53;2015172;29;20365;-50
2022/08/24 01:08:35;;;;;;;;;;;;;;;25.99;50.54;99500.47;2019052;29;20782;-48
2022/08/24 01:09:35;;;;;;;;;;;;;;;25.99;50.70;99496.81;2026904;29;20144;-48
2022/08/24 01:10:38;;;;;;;;;;;;;;;25.98;50.72;99495.97;2028168;29;19946;-45
2022/08/24 01:11:39;;;;;;;;;;;;;;;25.98;50.73;99495.97;2028534;29;19992;-49
2022/08/24 01:12:41;;;;;;;;;;;;;;;25.99;50.67;99499.59;2027812;29;19919;-47
2022/08/24 01:13:44;;;;;;;;;;;;;;;25.98;50.75;99498.75;2026788;29;20194;-46
2022/08/24 01:14:45;;;;;;;;;;;;;;;25.97;50.69;99497.06;2026501;29;19915;-47
2022/08/24 01:15:47;;;;;;;;;;;;;;;25.98;50.41;99495.13;2026403;29;19970;-46
2022/08/24 01:19:37;;;;;;;;;;;;;;;25.99;50.39;99494.06;2017561;29;20312;-49
2022/08/24 01:20:37;;;;;;;;;;;;;;;26.00;50.48;99493.03;2022065;29;19919;-47
2022/08/24 01:21:43;;;;;;;;;;;;;;;25.99;50.42;99492.19;2027541;29;19962;-48
2022/08/24 01:22:55;;;;;;;;;;;;;;;25.99;50.61;99497.69;2018937;29;19924;-47
2022/08/24 01:24:01;;;;;;;;;;;;;;;25.99;50.29;99497.69;2015692;29;20364;-46
2022/08/24 01:25:02;;;;;;;;;;;;;;;26.00;50.27;99493.88;2035687;29;19918;-46
2022/08/24 01:26:03;;;;;;;;;;;;;;;25.99;50.43;99492.19;2029472;29;19915;-46
2022/08/24 01:27:04;;;;;;;;;;;;;;;26.00;50.45;99491.09;2024444;29;20022;-47
2022/08/24 01:28:11;;;;;;;;;;;;;;;25.99;50.29;99492.19;2027054;29;19907;-46
2022/08/24 01:29:14;;;;;;;;;;;;;;;26.00;50.60;99498.53;2026770;29;19922;-46
2022/08/24 01:30:16;;;;;;;;;;;;;;;26.00;50.30;99493.88;2027694;29;19919;-47
2022/08/24 01:31:20;;;;;;;;;;;;;;;26.00;50.53;99493.88;2018516;29;20329;-45
2022/08/24 01:32:26;;;;;;;;;;;;;;;26.00;50.38;99493.88;2019045;29;19919;-46
2022/08/24 01:33:30;;;;;;;;;;;;;;;25.99;50.54;99494.94;2016610;29;19927;-48
2022/08/24 01:34:30;;;;;;;;;;;;;;;26.00;50.28;99493.03;2018223;29;20591;-46
2022/08/24 01:35:31;;;;;;;;;;;;;;;25.99;50.34;99492.19;2021870;29;19920;-47
2022/08/24 01:36:50;;;;;;;;;;;;;;;25.99;50.29;99497.69;2020189;29;19926;-46
2022/08/24 01:37:51;;;;;;;;;;;;;;;25.98;50.38;99495.97;2019951;29;19971;-46
2022/08/24 01:38:52;;;;;;;;;;;;;;;26.00;50.59;99493.03;2025897;29;19927;-47
2022/08/24 01:39:54;;;;;;;;;;;;;;;25.99;50.35;99494.06;2019169;29;19916;-47
2022/08/24 01:40:56;;;;;;;;;;;;;;;25.98;50.53;99490.47;2025024;29;20026;-48
2022/08/24 01:41:57;;;;;;;;;;;;;;;25.99;50.53;99486.66;2025947;29;20132;-46
2022/08/24 01:42:58;;;;;;;;;;;;;;;25.99;50.33;99492.19;2027189;29;20513;-49
2022/08/24 01:43:58;;;;;;;;;;;;;;;25.99;50.41;99496.81;2022557;29;20700;-46
2022/08/24 01:44:59;;;;;;;;;;;;;;;25.98;50.63;99489.63;2025636;29;19994;-47
2022/08/24 01:45:59;;;;;;;;;;;;;;;25.98;50.72;99498.75;2026977;29;19919;-47
2022/08/24 01:47:00;;;;;;;;;;;;;;;25.97;50.69;99491.53;2028160;29;19991;-49
2022/08/24 01:48:01;;;;;;;;;;;;;;;25.97;50.55;99490.66;2027150;29;19923;-50
2022/08/24 01:49:02;;;;;;;;;;;;;;;25.97;50.44;99494.28;2026496;29;19927;-46
2022/08/24 01:50:03;;;;;;;;;;;;;;;25.96;50.69;99489.81;2027394;29;19919;-46
2022/08/24 01:51:03;;;;;;;;;;;;;;;25.96;50.41;99491.72;2026185;29;20496;-45
2022/08/24 01:52:05;;;;;;;;;;;;;;;25.95;50.47;99490.88;2025929;29;19982;-48
2022/08/24 01:53:06;;;;;;;;;;;;;;;25.96;50.68;99492.56;2026492;29;19922;-48
2022/08/24 01:54:07;;;;;;;;;;;;;;;25.95;50.32;99485.38;2017753;29;19924;-46
2022/08/24 01:55:09;;;;;;;;;;;;;;;25.95;50.53;99493.66;2018422;29;20404;-48
2022/08/24 01:56:09;;;;;;;;;;;;;;;25.96;50.39;99491.72;2018782;29;19919;-46
2022/08/24 01:57:09;;;;;;;;;;;;;;;25.96;50.51;99491.72;2018154;29;20488;-47
2022/08/24 01:58:11;;;;;;;;;;;;;;;25.96;50.34;99491.72;2019276;29;19994;-49
2022/08/24 01:59:11;;;;;;;;;;;;;;;25.95;50.44;99490.88;2018817;29;20589;-48
2022/08/24 02:00:16;;;;;;;;;;;;;;;25.95;50.32;99485.38;2019165;29;19970;-50
2022/08/24 02:01:17;;;;;;;;;;;;;;;25.95;50.28;99490.88;2018388;29;19927;-48
2022/08/24 02:02:20;;;;;;;;;;;;;;;25.96;50.29;99477.94;2018141;29;19924;-48
2022/08/24 02:03:21;;;;;;;;;;;;;;;25.96;50.39;99491.72;2018602;29;19920;-50
2022/08/24 02:04:21;;;;;;;;;;;;;;;25.96;50.54;99487.06;2018941;29;19919;-48
2022/08/24 02:05:23;;;;;;;;;;;;;;;25.96;50.47;99486.22;2019594;29;19942;-49
2022/08/24 02:06:23;;;;;;;;;;;;;;;25.96;50.36;99487.06;2017822;29;20118;-47
2022/08/24 02:07:24;;;;;;;;;;;;;;;25.96;50.23;99484.28;2019763;29;19911;-50
2022/08/24 02:08:25;;;;;;;;;;;;;;;25.96;50.23;99481.53;2025691;29;19915;-51
2022/08/24 02:09:25;;;;;;;;;;;;;;;25.97;50.10;99488.78;2025797;29;19911;-50
2022/08/24 02:10:26;;;;;;;;;;;;;;;25.96;50.37;99487.06;2019527;29;20034;-47
2022/08/24 02:11:27;;;;;;;;;;;;;;;25.97;50.16;99488.78;2018152;29;19958;-50
2022/08/24 02:12:27;;;;;;;;;;;;;;;25.97;50.43;99482.38;2018196;29;20352;-46
2022/08/24 02:13:28;;;;;;;;;;;;;;;25.96;50.23;99487.06;2018567;29;19966;-50
2022/08/24 02:14:29;;;;;;;;;;;;;;;25.97;50.17;99486.00;2016801;29;19946;-46
2022/08/24 02:15:31;;;;;;;;;;;;;;;25.97;50.28;99486.00;2014471;29;19919;-46
2022/08/24 02:16:31;;;;;;;;;;;;;;;25.96;50.14;99476.00;2021422;29;19962;-46
2022/08/24 02:17:31;;;;;;;;;;;;;;;25.96;50.44;99489.81;2019941;29;20181;-46
2022/08/24 02:18:32;;;;;;;;;;;;;;;25.96;50.06;99487.06;2019397;29;19924;-47
2022/08/24 02:19:33;;;;;;;;;;;;;;;25.96;50.45;99481.53;2018577;29;19911;-50
2022/08/24 02:20:34;;;;;;;;;;;;;;;25.96;50.18;99478.78;2019191;29;19911;-47
2022/08/24 02:21:34;;;;;;;;;;;;;;;25.95;50.32;99485.38;2018252;29;20407;-48
2022/08/24 02:22:34;;;;;;;;;;;;;;;25.96;50.33;99481.53;2020646;29;20297;-46
2022/08/24 02:23:36;;;;;;;;;;;;;;;25.96;50.20;99484.28;2019579;29;19915;-49
2022/08/24 02:24:36;;;;;;;;;;;;;;;25.96;50.14;99487.06;2018884;29;19930;-50
2022/08/24 02:25:36;;;;;;;;;;;;;;;25.95;50.14;99479.84;2019961;29;19915;-47
2022/08/24 02:26:37;;;;;;;;;;;;;;;25.95;50.16;99477.09;2023377;29;19973;-48
2022/08/24 02:27:37;;;;;;;;;;;;;;;25.95;50.36;99479.84;2019191;29;19919;-47
2022/08/24 02:28:38;;;;;;;;;;;;;;;25.94;50.37;99478.13;2019044;29;20239;-46
2022/08/24 02:29:38;;;;;;;;;;;;;;;25.95;50.39;99485.38;2018952;29;20148;-48
2022/08/24 02:30:39;;;;;;;;;;;;;;;25.95;50.30;99479.84;2019802;29;20363;-49
2022/08/24 02:31:40;;;;;;;;;;;;;;;25.94;50.31;99480.88;2017617;29;19924;-47
2022/08/24 02:32:40;;;;;;;;;;;;;;;25.94;50.39;99485.56;2018703;29;20336;-46
2022/08/24 02:33:41;;;;;;;;;;;;;;;25.94;50.08;99482.81;2013021;29;20028;-47
2022/08/24 02:34:42;;;;;;;;;;;;;;;25.93;50.38;99478.34;2013252;29;19926;-49
2022/08/24 02:35:43;;;;;;;;;;;;;;;25.93;50.36;99476.44;2018487;29;19967;-47
2022/08/24 02:36:43;;;;;;;;;;;;;;;25.93;50.13;99475.59;2018591;29;20090;-49
2022/08/24 02:37:43;;;;;;;;;;;;;;;25.92;50.49;99480.28;2020936;29;19948;-49
2022/08/24 02:38:44;;;;;;;;;;;;;;;25.93;50.32;99479.19;2018775;29;19925;-50
2022/08/24 02:39:44;;;;;;;;;;;;;;;25.92;50.38;99474.75;2025648;29;19925;-49
2022/08/24 02:40:45;;;;;;;;;;;;;;;25.92;50.14;99474.75;2025768;29;20002;-49
2022/08/24 02:41:45;;;;;;;;;;;;;;;25.92;50.45;99469.22;2018866;29;20019;-50
2022/08/24 02:42:46;;;;;;;;;;;;;;;25.92;50.38;99473.88;2019284;29;19926;-47
2022/08/24 02:43:47;;;;;;;;;;;;;;;25.92;50.41;99472.00;2018359;29;19923;-51
2022/08/24 02:44:47;;;;;;;;;;;;;;;25.92;50.36;99472.00;2015353;29;19919;-46
2022/08/24 02:45:47;;;;;;;;;;;;;;;25.92;50.27;99468.34;2012170;29;19919;-46
2022/08/24 02:46:48;;;;;;;;;;;;;;;25.92;50.39;99469.22;2025065;29;19929;-48
2022/08/24 02:47:48;;;;;;;;;;;;;;;25.92;50.16;99474.75;2016724;29;19915;-48
2022/08/24 02:48:49;;;;;;;;;;;;;;;25.92;50.45;99474.75;2018467;29;19959;-49
2022/08/24 02:49:51;;;;;;;;;;;;;;;25.93;50.14;99470.91;2024719;29;20191;-47
2022/08/24 02:50:51;;;;;;;;;;;;;;;25.94;50.16;99472.59;2026133;29;19986;-44
2022/08/24 02:51:52;;;;;;;;;;;;;;;25.93;50.33;99473.69;2025802;29;19918;-47
2022/08/24 02:52:53;;;;;;;;;;;;;;;25.93;50.08;99481.97;2018437;29;19975;-48
2022/08/24 02:53:53;;;;;;;;;;;;;;;25.92;50.39;99474.75;2016364;29;19927;-50
2022/08/24 02:54:53;;;;;;;;;;;;;;;25.93;50.53;99479.19;2025974;29;19919;-46
2022/08/24 02:55:53;;;;;;;;;;;;;;;25.92;50.38;99474.75;2023720;29;19923;-50
2022/08/24 02:56:54;;;;;;;;;;;;;;;25.92;50.49;99469.22;2013852;29;20026;-50
2022/08/24 02:57:54;;;;;;;;;;;;;;;25.93;50.24;99476.44;2018208;29;20469;-49
2022/08/24 02:58:55;;;;;;;;;;;;;;;25.93;50.48;99475.59;2019457;29;19916;-46
2022/08/24 02:59:56;;;;;;;;;;;;;;;25.93;50.23;99470.91;2018420;29;19916;-46
2022/08/24 03:00:56;;;;;;;;;;;;;;;25.93;50.36;99470.06;2010548;29;19923;-48
2022/08/24 03:01:56;;;;;;;;;;;;;;;25.93;50.25;99470.06;2010925;29;19999;-46
2022/08/24 03:02:57;;;;;;;;;;;;;;;25.93;50.27;99470.06;2018746;29;19915;-46
2022/08/24 03:03:57;;;;;;;;;;;;;;;25.93;50.26;99470.06;2019678;29;19926;-47
2022/08/24 03:04:57;;;;;;;;;;;;;;;25.93;50.41;99475.59;2018754;29;20357;-47
2022/08/24 03:05:58;;;;;;;;;;;;;;;25.92;50.20;99468.34;2018963;29;19922;-50
2022/08/24 03:06:58;;;;;;;;;;;;;;;25.92;50.28;99471.09;2010439;29;20018;-47
2022/08/24 03:07:59;;;;;;;;;;;;;;;25.92;50.35;99473.88;2007203;29;20389;-46
2022/08/24 03:08:59;;;;;;;;;;;;;;;25.92;50.06;99474.75;2018335;29;19919;-46
2022/08/24 03:09:59;;;;;;;;;;;;;;;25.92;49.94;99469.22;2018847;29;19923;-47
2022/08/24 03:11:00;;;;;;;;;;;;;;;25.92;50.20;99472.00;2017235;29;19924;-49
2022/08/24 03:12:00;;;;;;;;;;;;;;;25.91;49.92;99478.56;2018418;29;20333;-48
2022/08/24 03:13:01;;;;;;;;;;;;;;;25.92;50.14;99474.75;2010554;29;19927;-46
2022/08/24 03:14:02;;;;;;;;;;;;;;;25.91;50.03;99473.03;2016481;29;19962;-50
2022/08/24 03:15:03;;;;;;;;;;;;;;;25.90;50.20;99471.34;2018757;29;19987;-48
2022/08/24 03:16:03;;;;;;;;;;;;;;;25.91;50.10;99478.56;2018208;29;19926;-50
2022/08/24 03:17:04;;;;;;;;;;;;;;;25.91;50.15;99477.72;2009992;29;20329;-50
2022/08/24 03:18:04;;;;;;;;;;;;;;;25.90;50.17;99482.38;2002887;29;20899;-48
2022/08/24 03:19:04;;;;;;;;;;;;;;;25.90;49.92;99471.34;2010287;29;20160;-47
2022/08/24 03:20:06;;;;;;;;;;;;;;;25.90;49.93;99476.03;2017591;29;19949;-48
2022/08/24 03:21:06;;;;;;;;;;;;;;;25.90;50.14;99476.88;2018512;29;20655;-45
2022/08/24 03:22:07;;;;;;;;;;;;;;;25.89;50.23;99475.16;2017590;29;20264;-50
2022/08/24 03:23:07;;;;;;;;;;;;;;;25.88;50.14;99479.81;2018567;29;20389;-51
2022/08/24 03:24:08;;;;;;;;;;;;;;;25.89;50.00;99475.16;2018090;29;20084;-49
2022/08/24 03:25:09;;;;;;;;;;;;;;;25.89;49.82;99472.38;2017952;29;19919;-46
2022/08/24 03:26:10;;;;;;;;;;;;;;;25.87;49.78;99467.09;2018278;29;19923;-50
2022/08/24 03:27:10;;;;;;;;;;;;;;;25.88;50.05;99467.94;2017987;29;19915;-50
2022/08/24 03:28:11;;;;;;;;;;;;;;;25.88;50.02;99462.41;2009751;29;19920;-46
2022/08/24 03:29:11;;;;;;;;;;;;;;;25.88;49.86;99463.25;2009943;29;20398;-50
2022/08/24 03:30:13;;;;;;;;;;;;;;;25.88;49.84;99456.88;2015450;29;20465;-49
2022/08/24 03:31:13;;;;;;;;;;;;;;;25.89;50.06;99464.09;2011033;29;19912;-50
2022/08/24 03:32:14;;;;;;;;;;;;;;;25.89;50.14;99458.56;2018143;29;19925;-48
2022/08/24 03:33:15;;;;;;;;;;;;;;;25.88;49.94;99456.88;2017931;29;19919;-51
2022/08/24 03:34:15;;;;;;;;;;;;;;;25.88;49.96;99463.25;2017125;29;19919;-49
2022/08/24 03:35:16;;;;;;;;;;;;;;;25.89;49.96;99461.34;2017803;29;19924;-50
2022/08/24 03:36:17;;;;;;;;;;;;;;;25.89;49.91;99464.09;2018706;29;20452;-46
2022/08/24 03:37:17;;;;;;;;;;;;;;;25.89;49.93;99458.56;2018619;29;20276;-51
2022/08/24 03:38:18;;;;;;;;;;;;;;;25.89;49.94;99461.34;2009424;29;19916;-46
2022/08/24 03:39:18;;;;;;;;;;;;;;;25.89;49.92;99461.34;2010005;29;19915;-47
2022/08/24 03:40:19;;;;;;;;;;;;;;;25.89;50.13;99461.34;2017694;29;19916;-47
2022/08/24 03:41:19;;;;;;;;;;;;;;;25.89;50.15;99461.34;2017006;29;19916;-50
2022/08/24 03:42:19;;;;;;;;;;;;;;;25.88;50.07;99466.03;2018403;29;19934;-47
2022/08/24 03:44:40;;;;;;;;;;;;;;;25.90;49.89;99459.47;2018455;29;19919;-46
2022/08/24 03:45:42;;;;;;;;;;;;;;;25.90;50.23;99462.22;2013553;29;19916;-49
2022/08/24 03:46:44;;;;;;;;;;;;;;;25.90;50.14;99462.22;2016173;29;19955;-49
2022/08/24 03:47:44;;;;;;;;;;;;;;;25.88;50.12;99463.25;2014604;29;20225;-46
2022/08/24 03:48:45;;;;;;;;;;;;;;;25.90;50.10;99465.81;2017678;29;20592;-49
2022/08/24 03:49:45;;;;;;;;;;;;;;;25.90;50.14;99467.75;2018584;29;19981;-49
2022/08/24 03:50:45;;;;;;;;;;;;;;;25.89;50.08;99469.63;2018414;29;19908;-47
2022/08/24 03:51:46;;;;;;;;;;;;;;;25.90;50.11;99465.81;2019236;29;19923;-46
2022/08/24 03:52:46;;;;;;;;;;;;;;;25.88;49.89;99462.41;2018268;29;20015;-49
2022/08/24 03:53:47;;;;;;;;;;;;;;;25.88;50.09;99463.25;2017179;29;20458;-50
2022/08/24 03:54:47;;;;;;;;;;;;;;;25.90;50.10;99464.97;2019258;29;20122;-47
2022/08/24 03:55:47;;;;;;;;;;;;;;;25.88;49.79;99459.66;2017160;29;20155;-49
2022/08/24 03:56:48;;;;;;;;;;;;;;;25.88;49.84;99460.50;2018980;29;20626;-48
2022/08/24 03:57:48;;;;;;;;;;;;;;;25.88;50.15;99467.94;2018603;29;19916;-48
2022/08/24 03:58:48;;;;;;;;;;;;;;;25.88;50.11;99462.41;2010008;29;20385;-48
2022/08/24 03:59:49;;;;;;;;;;;;;;;25.88;50.02;99462.41;2002519;29;19941;-47
2022/08/24 04:00:49;;;;;;;;;;;;;;;25.88;49.89;99462.41;2010417;29;19923;-47
2022/08/24 04:01:50;;;;;;;;;;;;;;;25.87;49.90;99460.69;2018042;29;19919;-47
2022/08/24 04:02:50;;;;;;;;;;;;;;;25.87;49.85;99460.69;2017983;29;20527;-46
2022/08/24 04:03:54;;;;;;;;;;;;;;;25.86;49.86;99447.97;2016667;29;19926;-49
2022/08/24 04:04:54;;;;;;;;;;;;;;;25.86;50.04;99459.00;2015505;29;20034;-47
2022/08/24 04:05:55;;;;;;;;;;;;;;;25.86;50.02;99459.00;2018752;29;20271;-47
2022/08/24 04:06:56;;;;;;;;;;;;;;;25.85;49.87;99452.63;2018863;29;20689;-46
2022/08/24 04:07:56;;;;;;;;;;;;;;;25.86;50.06;99459.00;2018236;29;20183;-46
2022/08/24 04:08:57;;;;;;;;;;;;;;;25.85;49.85;99451.75;2019142;29;20120;-48
2022/08/24 04:09:57;;;;;;;;;;;;;;;25.85;50.08;99457.28;2018152;29;19919;-46
2022/08/24 04:10:58;;;;;;;;;;;;;;;25.85;49.88;99452.63;2017660;29;19958;-48
2022/08/24 04:11:58;;;;;;;;;;;;;;;25.85;50.07;99457.28;2019008;29;20289;-47
2022/08/24 04:13:00;;;;;;;;;;;;;;;25.86;50.03;99453.47;2018154;29;19923;-47
2022/08/24 04:14:00;;;;;;;;;;;;;;;25.85;49.91;99452.63;2018492;29;20124;-48
2022/08/24 04:15:01;;;;;;;;;;;;;;;25.85;50.02;99458.16;2018037;29;19970;-49
2022/08/24 04:16:05;;;;;;;;;;;;;;;25.85;50.06;99454.53;2018647;29;19944;-47
2022/08/24 04:17:06;;;;;;;;;;;;;;;25.85;49.87;99458.16;2017808;29;19924;-51
2022/08/24 04:18:06;;;;;;;;;;;;;;;25.85;49.91;99451.75;2019423;29;19964;-50
2022/08/24 04:19:07;;;;;;;;;;;;;;;25.86;50.18;99459.00;2015338;29;20414;-50
2022/08/24 04:20:07;;;;;;;;;;;;;;;25.86;50.04;99459.00;2018728;29;19919;-50
2022/08/24 04:21:19;;;;;;;;;;;;;;;25.86;50.15;99456.25;2017117;29;20023;-48
2022/08/24 04:22:19;;;;;;;;;;;;;;;25.86;50.17;99459.00;2017388;29;19919;-48
2022/08/24 04:23:19;;;;;;;;;;;;;;;25.86;50.08;99456.25;2018439;29;19926;-50
2022/08/24 04:24:19;;;;;;;;;;;;;;;25.86;50.01;99453.47;2018588;29;20384;-49
2022/08/24 04:25:20;;;;;;;;;;;;;;;25.86;50.09;99459.84;2017834;29;20030;-46
2022/08/24 04:26:21;;;;;;;;;;;;;;;25.85;50.07;99452.63;2018303;29;19977;-46
2022/08/24 04:27:22;;;;;;;;;;;;;;;25.85;49.87;99457.28;2018059;29;20424;-49
2022/08/24 04:28:22;;;;;;;;;;;;;;;25.85;50.04;99460.91;2018562;29;20058;-50
2022/08/24 04:29:23;;;;;;;;;;;;;;;25.86;50.14;99459.00;2017749;29;19926;-47
2022/08/24 04:30:23;;;;;;;;;;;;;;;25.85;50.04;99457.28;2011257;29;19919;-50
2022/08/24 04:31:24;;;;;;;;;;;;;;;25.87;49.87;99455.16;2012085;29;20346;-49
2022/08/24 04:32:24;;;;;;;;;;;;;;;25.85;50.09;99458.16;2018734;29;19968;-49
2022/08/24 04:33:25;;;;;;;;;;;;;;;25.85;49.85;99458.16;2017989;29;20305;-49
2022/08/24 04:34:25;;;;;;;;;;;;;;;25.86;49.88;99456.25;2018175;29;19987;-46
2022/08/24 04:35:25;;;;;;;;;;;;;;;25.85;49.74;99457.28;2018960;29;19983;-51
2022/08/24 04:36:26;;;;;;;;;;;;;;;25.85;50.08;99449.88;2018194;29;20358;-46
2022/08/24 04:37:26;;;;;;;;;;;;;;;25.85;50.06;99454.53;2018617;29;19926;-47
2022/08/24 04:38:27;;;;;;;;;;;;;;;25.85;50.03;99451.75;2009788;29;20445;-49
2022/08/24 04:39:27;;;;;;;;;;;;;;;25.85;49.74;99457.28;2009871;29;19916;-45
2022/08/24 04:40:27;;;;;;;;;;;;;;;25.85;50.06;99458.16;2018278;29;19915;-47
2022/08/24 04:41:28;;;;;;;;;;;;;;;25.85;49.92;99462.81;2017732;29;19971;-51
2022/08/24 04:42:30;;;;;;;;;;;;;;;25.85;50.03;99457.28;2018796;29;20586;-46
2022/08/24 04:43:30;;;;;;;;;;;;;;;25.85;49.70;99454.53;2017341;29;19920;-45
2022/08/24 04:44:31;;;;;;;;;;;;;;;25.85;50.04;99454.53;2020932;29;19919;-47
2022/08/24 04:45:32;;;;;;;;;;;;;;;25.85;50.09;99457.28;2017977;29;19919;-48
2022/08/24 04:46:34;;;;;;;;;;;;;;;25.83;50.01;99453.88;2019364;29;20029;-48
2022/08/24 04:47:34;;;;;;;;;;;;;;;25.83;49.83;99465.75;2017531;29;19917;-46
2022/08/24 04:48:34;;;;;;;;;;;;;;;25.83;50.03;99467.69;2017645;29;19920;-48
2022/08/24 04:49:36;;;;;;;;;;;;;;;25.82;49.96;99464.06;2017589;29;20128;-49
2022/08/24 04:50:37;;;;;;;;;;;;;;;25.82;49.97;99469.59;2018747;29;20112;-48
2022/08/24 04:51:37;;;;;;;;;;;;;;;25.82;50.08;99463.22;2017341;29;19916;-49
2022/08/24 04:52:38;;;;;;;;;;;;;;;25.82;49.97;99460.44;2018204;29;20467;-47
2022/08/24 04:53:39;;;;;;;;;;;;;;;25.82;49.94;99464.06;2018131;29;20423;-47
2022/08/24 04:54:39;;;;;;;;;;;;;;;25.81;50.11;99461.50;2013214;29;20416;-46
2022/08/24 04:55:44;;;;;;;;;;;;;;;25.81;50.00;99461.50;2018279;29;19924;-49
2022/08/24 04:56:44;;;;;;;;;;;;;;;25.82;49.69;99474.25;2018614;29;19922;-47
2022/08/24 04:57:44;;;;;;;;;;;;;;;25.81;49.72;99467.88;2017963;29;20325;-46
2022/08/24 04:58:45;;;;;;;;;;;;;;;25.82;49.99;99477.00;2018103;29;19923;-48
2022/08/24 04:59:45;;;;;;;;;;;;;;;25.80;50.04;99477.22;2018891;29;20409;-50
2022/08/24 05:00:46;;;;;;;;;;;;;;;25.81;49.96;99472.56;2018376;29;19912;-47
2022/08/24 05:01:47;;;;;;;;;;;;;;;25.81;49.94;99475.31;2018648;29;19927;-46
2022/08/24 05:02:47;;;;;;;;;;;;;;;25.81;50.00;99478.94;2014336;29;19919;-46
2022/08/24 05:03:49;;;;;;;;;;;;;;;25.81;50.03;99472.56;2011089;29;20245;-50
2022/08/24 05:04:49;;;;;;;;;;;;;;;25.81;49.99;99478.09;2017526;29;20401;-50
2022/08/24 05:05:50;;;;;;;;;;;;;;;25.82;49.79;99482.53;2018441;29;19919;-50
2022/08/24 05:06:50;;;;;;;;;;;;;;;25.81;49.87;99473.41;2018166;29;20523;-46
2022/08/24 05:07:50;;;;;;;;;;;;;;;25.83;50.02;99487.00;2017364;29;19926;-46
2022/08/24 05:08:51;;;;;;;;;;;;;;;25.81;49.73;99481.69;2017658;29;19931;-50
2022/08/24 05:09:51;;;;;;;;;;;;;;;25.82;49.77;99479.75;2017967;29;20336;-50
2022/08/24 05:10:52;;;;;;;;;;;;;;;25.83;49.76;99481.50;2018637;29;19920;-48
2022/08/24 05:11:54;;;;;;;;;;;;;;;25.81;49.88;99489.97;2019748;29;20314;-46
2022/08/24 05:12:54;;;;;;;;;;;;;;;25.81;49.97;99487.22;2019094;29;19920;-48
2022/08/24 05:13:56;;;;;;;;;;;;;;;25.81;50.02;99489.13;2020272;29;19942;-48
2022/08/24 05:14:56;;;;;;;;;;;;;;;25.81;49.80;99480.84;2019385;29;19919;-49
2022/08/24 05:15:57;;;;;;;;;;;;;;;25.82;50.03;99482.53;2019571;29;19943;-50
2022/08/24 05:16:57;;;;;;;;;;;;;;;25.81;49.87;99489.13;2018486;29;20325;-49
2022/08/24 05:17:58;;;;;;;;;;;;;;;25.81;49.87;99484.44;2019473;29;19919;-45
2022/08/24 05:18:59;;;;;;;;;;;;;;;25.81;49.92;99486.38;2010847;29;19920;-45
2022/08/24 05:19:59;;;;;;;;;;;;;;;25.81;49.89;99486.38;2003873;29;20018;-47
2022/08/24 05:21:00;;;;;;;;;;;;;;;25.81;50.00;99478.09;2010797;29;19927;-46
2022/08/24 05:22:00;;;;;;;;;;;;;;;25.81;49.67;99478.94;2019345;29;19928;-47
2022/08/24 05:23:01;;;;;;;;;;;;;;;25.80;49.92;99484.66;2020079;29;19927;-46